sensor_id;sensor_type;location;lat;lon;timestamp;temperature;humidity
1992;DHT22;997;48.448;8.924;2023-12-29T00:01:43;8.80;99.90
1992;DHT22;997;48.448;8.924;2023-12-29T00:04:09;8.90;99.90
1992;DHT22;997;48.448;8.924;2023-12-29T00:06:40;8.90;99.90
1992;DHT22;997;48.448;8.924;2023-12-29T00:09:06;9.00;99.90
1992;DHT22;997;48.448;8.924;2023-12-29T00:11:33;9.00;99.90
1992;DHT22;997;48.448;8.924;2023-12-29T00:13:59;9.00;99.90
1992;DHT22;997;48.448;8.924;2023-12-29T00:16:27;8.90;99.90
1992;DHT22;997;48.448;8.924;2023-12-29T00:18:53;8.90;99.90
1992;DHT22;997;48.448;8.924;2023-12-29T00:21:19;8.90;99.90
1992;DHT22;997;48.448;8.924;2023-12-29T00:23:44;9.00;99.90
1992;DHT22;997;48.448;8.924;2023-12-29T00:26:10;9.00;99.90
1992;DHT22;997;48.448;8.924;2023-12-29T00:28:36;8.90;99.90
1992;DHT22;997;48.448;8.924;2023-12-29T00:31:06;9.00;99.90
1992;DHT22;997;48.448;8.924;2023-12-29T00:33:32;9.00;99.90
1992;DHT22;997;48.448;8.924;2023-12-29T00:35:57;9.00;99.90
1992;DHT22;997;48.448;8.924;2023-12-29T00:38:24;9.00;99.90
1992;DHT22;997;48.448;8.924;2023-12-29T00:40:50;9.00;99.90
1992;DHT22;997;48.448;8.924;2023-12-29T00:43:15;9.00;99.90
1992;DHT22;997;48.448;8.924;2023-12-29T00:45:41;9.00;99.90
1992;DHT22;997;48.448;8.924;2023-12-29T00:48:07;9.10;99.90
1992;DHT22;997;48.448;8.924;2023-12-29T00:50:32;9.10;99.90
1992;DHT22;997;48.448;8.924;2023-12-29T00:52:58;9.10;99.90
1992;DHT22;997;48.448;8.924;2023-12-29T00:55:23;9.10;99.90
1992;DHT22;997;48.448;8.924;2023-12-29T00:57:49;9.20;99.90
1992;DHT22;997;48.448;8.924;2023-12-29T01:00:15;9.20;99.90
1992;DHT22;997;48.448;8.924;2023-12-29T01:02:41;9.30;99.90
1992;DHT22;997;48.448;8.924;2023-12-29T01:05:06;9.30;99.90
1992;DHT22;997;48.448;8.924;2023-12-29T01:07:32;9.30;99.90
1992;DHT22;997;48.448;8.924;2023-12-29T01:09:58;9.30;99.90
1992;DHT22;997;48.448;8.924;2023-12-29T01:12:24;9.20;99.90
1992;DHT22;997;48.448;8.924;2023-12-29T01:14:50;9.20;99.90
1992;DHT22;997;48.448;8.924;2023-12-29T01:17:16;9.20;99.90
1992;DHT22;997;48.448;8.924;2023-12-29T01:19:41;9.20;99.90
1992;DHT22;997;48.448;8.924;2023-12-29T01:22:07;9.20;99.90
1992;DHT22;997;48.448;8.924;2023-12-29T01:24:33;9.20;99.90
1992;DHT22;997;48.448;8.924;2023-12-29T01:26:58;9.10;99.90
1992;DHT22;997;48.448;8.924;2023-12-29T01:29:24;9.10;99.90
1992;DHT22;997;48.448;8.924;2023-12-29T01:31:49;9.10;99.90
1992;DHT22;997;48.448;8.924;2023-12-29T01:34:15;9.10;99.90
1992;DHT22;997;48.448;8.924;2023-12-29T01:36:41;9.00;99.90
1992;DHT22;997;48.448;8.924;2023-12-29T01:39:06;9.00;99.90
1992;DHT22;997;48.448;8.924;2023-12-29T01:41:32;8.90;99.90
1992;DHT22;997;48.448;8.924;2023-12-29T01:46:28;8.80;99.90
1992;DHT22;997;48.448;8.924;2023-12-29T01:48:55;8.80;99.90
1992;DHT22;997;48.448;8.924;2023-12-29T01:51:23;8.80;99.90
1992;DHT22;997;48.448;8.924;2023-12-29T01:53:50;8.80;99.90
1992;DHT22;997;48.448;8.924;2023-12-29T01:56:16;8.80;99.90
1992;DHT22;997;48.448;8.924;2023-12-29T01:58:43;8.80;99.90
1992;DHT22;997;48.448;8.924;2023-12-29T02:01:10;8.70;99.90
1992;DHT22;997;48.448;8.924;2023-12-29T02:03:36;8.70;99.90
1992;DHT22;997;48.448;8.924;2023-12-29T02:06:02;8.70;99.90
1992;DHT22;997;48.448;8.924;2023-12-29T02:08:28;8.60;99.90
1992;DHT22;997;48.448;8.924;2023-12-29T02:10:55;8.50;99.90
1992;DHT22;997;48.448;8.924;2023-12-29T02:13:21;8.50;99.90
1992;DHT22;997;48.448;8.924;2023-12-29T02:15:50;8.50;99.90
1992;DHT22;997;48.448;8.924;2023-12-29T02:18:18;8.40;99.90
1992;DHT22;997;48.448;8.924;2023-12-29T02:20:46;8.40;99.90
1992;DHT22;997;48.448;8.924;2023-12-29T02:23:12;8.40;99.90
1992;DHT22;997;48.448;8.924;2023-12-29T02:25:37;8.30;99.90
1992;DHT22;997;48.448;8.924;2023-12-29T02:28:22;8.40;99.90
1992;DHT22;997;48.448;8.924;2023-12-29T02:31:00;8.40;99.90
1992;DHT22;997;48.448;8.924;2023-12-29T02:33:28;8.40;99.90
1992;DHT22;997;48.448;8.924;2023-12-29T02:35:59;8.40;99.90
1992;DHT22;997;48.448;8.924;2023-12-29T02:38:25;8.40;99.90
1992;DHT22;997;48.448;8.924;2023-12-29T02:40:55;8.40;99.90
1992;DHT22;997;48.448;8.924;2023-12-29T02:43:21;8.40;99.90
1992;DHT22;997;48.448;8.924;2023-12-29T02:45:47;8.30;99.90
1992;DHT22;997;48.448;8.924;2023-12-29T02:48:12;8.30;99.90
1992;DHT22;997;48.448;8.924;2023-12-29T02:50:38;8.30;99.90
1992;DHT22;997;48.448;8.924;2023-12-29T02:53:04;8.30;99.90
1992;DHT22;997;48.448;8.924;2023-12-29T02:55:30;8.30;99.90
1992;DHT22;997;48.448;8.924;2023-12-29T02:57:55;8.40;99.90
1992;DHT22;997;48.448;8.924;2023-12-29T03:00:21;8.30;99.90
1992;DHT22;997;48.448;8.924;2023-12-29T03:02:46;8.30;99.90
1992;DHT22;997;48.448;8.924;2023-12-29T03:05:12;8.30;99.90
1992;DHT22;997;48.448;8.924;2023-12-29T03:07:38;8.30;99.90
1992;DHT22;997;48.448;8.924;2023-12-29T03:10:05;8.20;99.90
1992;DHT22;997;48.448;8.924;2023-12-29T03:12:31;8.20;99.90
1992;DHT22;997;48.448;8.924;2023-12-29T03:14:56;8.10;99.90
1992;DHT22;997;48.448;8.924;2023-12-29T03:17:22;8.10;99.90
1992;DHT22;997;48.448;8.924;2023-12-29T03:19:48;8.10;99.90
1992;DHT22;997;48.448;8.924;2023-12-29T03:22:13;8.00;99.90
1992;DHT22;997;48.448;8.924;2023-12-29T03:24:41;8.00;99.90
1992;DHT22;997;48.448;8.924;2023-12-29T03:27:07;8.00;99.90
1992;DHT22;997;48.448;8.924;2023-12-29T03:29:32;7.90;99.90
1992;DHT22;997;48.448;8.924;2023-12-29T03:31:58;7.90;99.90
1992;DHT22;997;48.448;8.924;2023-12-29T03:34:24;7.90;99.90
1992;DHT22;997;48.448;8.924;2023-12-29T03:36:49;7.90;99.90
1992;DHT22;997;48.448;8.924;2023-12-29T03:39:15;7.90;99.90
1992;DHT22;997;48.448;8.924;2023-12-29T03:41:41;7.90;99.90
1992;DHT22;997;48.448;8.924;2023-12-29T03:44:06;7.80;99.90
1992;DHT22;997;48.448;8.924;2023-12-29T03:46:32;7.90;99.90
1992;DHT22;997;48.448;8.924;2023-12-29T03:48:58;7.90;99.90
1992;DHT22;997;48.448;8.924;2023-12-29T03:51:24;7.90;99.90
1992;DHT22;997;48.448;8.924;2023-12-29T03:53:49;7.90;99.90
1992;DHT22;997;48.448;8.924;2023-12-29T03:56:16;8.00;99.90
1992;DHT22;997;48.448;8.924;2023-12-29T03:58:45;8.00;99.90
1992;DHT22;997;48.448;8.924;2023-12-29T04:01:12;8.00;99.90
1992;DHT22;997;48.448;8.924;2023-12-29T04:03:38;8.10;99.90
1992;DHT22;997;48.448;8.924;2023-12-29T04:06:05;8.10;99.90
1992;DHT22;997;48.448;8.924;2023-12-29T04:08:31;8.00;99.90
1992;DHT22;997;48.448;8.924;2023-12-29T04:10:56;8.10;99.90
1992;DHT22;997;48.448;8.924;2023-12-29T04:13:22;8.20;99.90
1992;DHT22;997;48.448;8.924;2023-12-29T04:15:48;8.20;99.90
1992;DHT22;997;48.448;8.924;2023-12-29T04:18:13;8.30;99.90
1992;DHT22;997;48.448;8.924;2023-12-29T04:20:39;8.30;99.90
1992;DHT22;997;48.448;8.924;2023-12-29T04:23:06;8.30;99.90
1992;DHT22;997;48.448;8.924;2023-12-29T04:25:33;8.20;99.90
1992;DHT22;997;48.448;8.924;2023-12-29T04:27:58;8.20;99.90
1992;DHT22;997;48.448;8.924;2023-12-29T04:30:24;8.20;99.90
1992;DHT22;997;48.448;8.924;2023-12-29T04:32:50;8.20;99.90
1992;DHT22;997;48.448;8.924;2023-12-29T04:35:15;8.20;99.90
1992;DHT22;997;48.448;8.924;2023-12-29T04:37:44;8.20;99.90
1992;DHT22;997;48.448;8.924;2023-12-29T04:40:10;8.30;99.90
1992;DHT22;997;48.448;8.924;2023-12-29T04:42:36;8.30;99.90
1992;DHT22;997;48.448;8.924;2023-12-29T04:45:01;8.40;99.90
1992;DHT22;997;48.448;8.924;2023-12-29T04:47:27;8.40;99.90
1992;DHT22;997;48.448;8.924;2023-12-29T04:49:53;8.40;99.90
1992;DHT22;997;48.448;8.924;2023-12-29T04:52:18;8.40;99.90
1992;DHT22;997;48.448;8.924;2023-12-29T04:54:44;8.40;99.90
1992;DHT22;997;48.448;8.924;2023-12-29T04:57:09;8.50;99.90
1992;DHT22;997;48.448;8.924;2023-12-29T04:59:35;8.50;99.90
1992;DHT22;997;48.448;8.924;2023-12-29T05:02:01;8.50;99.90
1992;DHT22;997;48.448;8.924;2023-12-29T05:04:26;8.50;99.90
1992;DHT22;997;48.448;8.924;2023-12-29T05:06:52;8.50;99.90
1992;DHT22;997;48.448;8.924;2023-12-29T05:09:17;8.50;99.90
1992;DHT22;997;48.448;8.924;2023-12-29T05:11:43;8.60;99.90
1992;DHT22;997;48.448;8.924;2023-12-29T05:14:09;8.60;99.90
1992;DHT22;997;48.448;8.924;2023-12-29T05:16:35;8.70;99.90
1992;DHT22;997;48.448;8.924;2023-12-29T05:19:01;8.70;99.90
1992;DHT22;997;48.448;8.924;2023-12-29T05:21:26;8.70;99.90
1992;DHT22;997;48.448;8.924;2023-12-29T05:23:52;8.80;99.90
1992;DHT22;997;48.448;8.924;2023-12-29T05:26:18;8.80;99.90
1992;DHT22;997;48.448;8.924;2023-12-29T05:28:43;8.80;99.90
1992;DHT22;997;48.448;8.924;2023-12-29T05:31:09;8.80;99.90
1992;DHT22;997;48.448;8.924;2023-12-29T05:33:35;8.70;99.90
1992;DHT22;997;48.448;8.924;2023-12-29T05:36:09;8.80;99.90
1992;DHT22;997;48.448;8.924;2023-12-29T05:38:35;8.80;99.90
1992;DHT22;997;48.448;8.924;2023-12-29T05:41:02;8.80;99.90
1992;DHT22;997;48.448;8.924;2023-12-29T05:43:33;8.80;99.90
1992;DHT22;997;48.448;8.924;2023-12-29T05:45:59;8.90;99.90
1992;DHT22;997;48.448;8.924;2023-12-29T05:48:25;8.90;99.90
1992;DHT22;997;48.448;8.924;2023-12-29T05:50:51;8.80;99.90
1992;DHT22;997;48.448;8.924;2023-12-29T05:53:17;8.80;99.90
1992;DHT22;997;48.448;8.924;2023-12-29T05:55:43;8.80;99.90
1992;DHT22;997;48.448;8.924;2023-12-29T05:58:09;8.80;99.90
1992;DHT22;997;48.448;8.924;2023-12-29T06:00:38;8.80;99.90
1992;DHT22;997;48.448;8.924;2023-12-29T06:03:06;8.90;99.90
1992;DHT22;997;48.448;8.924;2023-12-29T06:05:32;8.90;99.90
1992;DHT22;997;48.448;8.924;2023-12-29T06:07:58;8.90;99.90
1992;DHT22;997;48.448;8.924;2023-12-29T06:10:24;8.90;99.90
1992;DHT22;997;48.448;8.924;2023-12-29T06:12:50;9.00;99.90
1992;DHT22;997;48.448;8.924;2023-12-29T06:15:15;9.00;99.90
1992;DHT22;997;48.448;8.924;2023-12-29T06:17:41;9.10;99.90
1992;DHT22;997;48.448;8.924;2023-12-29T06:20:08;9.20;99.90
1992;DHT22;997;48.448;8.924;2023-12-29T06:22:39;9.20;99.90
1992;DHT22;997;48.448;8.924;2023-12-29T06:25:09;9.20;99.90
1992;DHT22;997;48.448;8.924;2023-12-29T06:27:35;9.30;99.90
1992;DHT22;997;48.448;8.924;2023-12-29T06:30:05;9.30;99.90
1992;DHT22;997;48.448;8.924;2023-12-29T06:32:31;9.30;99.90
1992;DHT22;997;48.448;8.924;2023-12-29T06:34:57;9.30;99.90
1992;DHT22;997;48.448;8.924;2023-12-29T06:37:22;9.40;99.90
1992;DHT22;997;48.448;8.924;2023-12-29T06:39:48;9.40;99.90
1992;DHT22;997;48.448;8.924;2023-12-29T06:42:14;9.30;99.90
1992;DHT22;997;48.448;8.924;2023-12-29T06:44:39;9.40;99.90
1992;DHT22;997;48.448;8.924;2023-12-29T06:47:05;9.40;99.90
1992;DHT22;997;48.448;8.924;2023-12-29T06:49:34;9.50;99.90
1992;DHT22;997;48.448;8.924;2023-12-29T06:51:59;9.50;99.90
1992;DHT22;997;48.448;8.924;2023-12-29T06:54:25;9.60;99.90
1992;DHT22;997;48.448;8.924;2023-12-29T06:56:51;9.70;99.90
1992;DHT22;997;48.448;8.924;2023-12-29T06:59:16;9.70;99.90
1992;DHT22;997;48.448;8.924;2023-12-29T07:01:44;9.80;99.90
1992;DHT22;997;48.448;8.924;2023-12-29T07:04:09;9.80;99.90
1992;DHT22;997;48.448;8.924;2023-12-29T07:06:38;9.80;99.90
1992;DHT22;997;48.448;8.924;2023-12-29T07:09:04;9.70;99.90
1992;DHT22;997;48.448;8.924;2023-12-29T07:11:30;9.70;99.90
1992;DHT22;997;48.448;8.924;2023-12-29T07:13:56;9.70;99.90
1992;DHT22;997;48.448;8.924;2023-12-29T07:16:22;9.70;99.90
1992;DHT22;997;48.448;8.924;2023-12-29T07:18:48;9.80;99.90
1992;DHT22;997;48.448;8.924;2023-12-29T07:21:14;9.90;99.90
1992;DHT22;997;48.448;8.924;2023-12-29T07:23:40;9.90;99.90
1992;DHT22;997;48.448;8.924;2023-12-29T07:26:07;9.90;99.90
1992;DHT22;997;48.448;8.924;2023-12-29T07:28:33;9.80;99.90
1992;DHT22;997;48.448;8.924;2023-12-29T07:30:59;9.80;99.90
1992;DHT22;997;48.448;8.924;2023-12-29T07:33:25;9.70;99.90
1992;DHT22;997;48.448;8.924;2023-12-29T07:35:50;9.60;99.90
1992;DHT22;997;48.448;8.924;2023-12-29T07:38:16;9.60;99.90
1992;DHT22;997;48.448;8.924;2023-12-29T07:40:42;9.60;99.90
1992;DHT22;997;48.448;8.924;2023-12-29T07:43:08;9.50;99.90
1992;DHT22;997;48.448;8.924;2023-12-29T07:45:34;9.50;99.90
1992;DHT22;997;48.448;8.924;2023-12-29T07:48:00;9.50;99.90
1992;DHT22;997;48.448;8.924;2023-12-29T07:50:25;9.50;99.90
1992;DHT22;997;48.448;8.924;2023-12-29T07:52:51;9.60;99.90
1992;DHT22;997;48.448;8.924;2023-12-29T07:55:16;9.60;99.90
1992;DHT22;997;48.448;8.924;2023-12-29T07:57:42;9.50;99.90
1992;DHT22;997;48.448;8.924;2023-12-29T08:00:09;9.40;99.90
1992;DHT22;997;48.448;8.924;2023-12-29T08:02:35;9.30;99.90
1992;DHT22;997;48.448;8.924;2023-12-29T08:05:01;9.30;99.90
1992;DHT22;997;48.448;8.924;2023-12-29T08:07:27;9.20;99.90
1992;DHT22;997;48.448;8.924;2023-12-29T08:09:53;9.20;99.90
1992;DHT22;997;48.448;8.924;2023-12-29T08:12:18;9.20;99.90
1992;DHT22;997;48.448;8.924;2023-12-29T08:14:44;9.10;99.90
1992;DHT22;997;48.448;8.924;2023-12-29T08:17:10;9.10;99.90
1992;DHT22;997;48.448;8.924;2023-12-29T08:19:36;9.20;99.90
1992;DHT22;997;48.448;8.924;2023-12-29T08:22:02;9.20;99.90
1992;DHT22;997;48.448;8.924;2023-12-29T08:24:28;9.30;99.90
1992;DHT22;997;48.448;8.924;2023-12-29T08:26:53;9.30;99.90
1992;DHT22;997;48.448;8.924;2023-12-29T08:29:19;9.30;99.90
1992;DHT22;997;48.448;8.924;2023-12-29T08:31:45;9.30;99.90
1992;DHT22;997;48.448;8.924;2023-12-29T08:34:11;9.40;99.90
1992;DHT22;997;48.448;8.924;2023-12-29T08:36:37;9.50;99.90
1992;DHT22;997;48.448;8.924;2023-12-29T08:39:03;9.50;99.90
1992;DHT22;997;48.448;8.924;2023-12-29T08:41:29;9.70;99.90
1992;DHT22;997;48.448;8.924;2023-12-29T08:43:54;9.70;99.90
1992;DHT22;997;48.448;8.924;2023-12-29T08:46:20;9.70;99.90
1992;DHT22;997;48.448;8.924;2023-12-29T08:48:46;9.70;99.90
1992;DHT22;997;48.448;8.924;2023-12-29T08:51:12;9.80;99.90
1992;DHT22;997;48.448;8.924;2023-12-29T08:53:38;9.80;99.90
1992;DHT22;997;48.448;8.924;2023-12-29T08:56:04;9.80;99.90
1992;DHT22;997;48.448;8.924;2023-12-29T08:58:30;9.80;99.90
1992;DHT22;997;48.448;8.924;2023-12-29T09:00:56;9.80;99.90
1992;DHT22;997;48.448;8.924;2023-12-29T09:03:22;9.90;99.90
1992;DHT22;997;48.448;8.924;2023-12-29T09:05:47;9.90;99.90
1992;DHT22;997;48.448;8.924;2023-12-29T09:08:13;9.90;99.90
1992;DHT22;997;48.448;8.924;2023-12-29T09:10:39;10.00;99.90
1992;DHT22;997;48.448;8.924;2023-12-29T09:13:04;10.00;99.90
1992;DHT22;997;48.448;8.924;2023-12-29T09:15:30;10.00;99.90
1992;DHT22;997;48.448;8.924;2023-12-29T09:17:56;10.00;99.90
1992;DHT22;997;48.448;8.924;2023-12-29T09:20:21;10.00;99.90
1992;DHT22;997;48.448;8.924;2023-12-29T09:22:47;10.00;99.90
1992;DHT22;997;48.448;8.924;2023-12-29T09:25:13;9.90;99.90
1992;DHT22;997;48.448;8.924;2023-12-29T09:27:39;10.00;99.90
1992;DHT22;997;48.448;8.924;2023-12-29T09:30:05;10.10;99.90
1992;DHT22;997;48.448;8.924;2023-12-29T09:32:31;10.10;99.90
1992;DHT22;997;48.448;8.924;2023-12-29T09:34:56;10.10;99.90
1992;DHT22;997;48.448;8.924;2023-12-29T09:37:22;10.10;99.90
1992;DHT22;997;48.448;8.924;2023-12-29T09:39:48;10.20;99.90
1992;DHT22;997;48.448;8.924;2023-12-29T09:42:24;10.30;99.90
1992;DHT22;997;48.448;8.924;2023-12-29T09:44:52;10.50;99.90
1992;DHT22;997;48.448;8.924;2023-12-29T09:47:22;10.60;99.90
1992;DHT22;997;48.448;8.924;2023-12-29T09:49:49;10.60;99.90
1992;DHT22;997;48.448;8.924;2023-12-29T09:52:17;10.60;99.90
1992;DHT22;997;48.448;8.924;2023-12-29T09:54:44;10.60;99.90
1992;DHT22;997;48.448;8.924;2023-12-29T09:57:10;10.60;99.90
1992;DHT22;997;48.448;8.924;2023-12-29T09:59:37;10.50;99.90
1992;DHT22;997;48.448;8.924;2023-12-29T10:02:15;10.50;99.90
1992;DHT22;997;48.448;8.924;2023-12-29T10:04:41;10.50;99.90
1992;DHT22;997;48.448;8.924;2023-12-29T10:07:07;10.50;99.90
1992;DHT22;997;48.448;8.924;2023-12-29T10:09:37;10.50;99.90
1992;DHT22;997;48.448;8.924;2023-12-29T10:12:03;10.50;99.90
1992;DHT22;997;48.448;8.924;2023-12-29T10:23:22;10.80;99.90
1992;DHT22;997;48.448;8.924;2023-12-29T10:25:52;10.70;99.90
1992;DHT22;997;48.448;8.924;2023-12-29T10:28:18;10.80;99.90
1992;DHT22;997;48.448;8.924;2023-12-29T10:30:44;10.80;99.90
1992;DHT22;997;48.448;8.924;2023-12-29T10:33:10;10.80;99.90
1992;DHT22;997;48.448;8.924;2023-12-29T10:35:38;10.80;99.90
1992;DHT22;997;48.448;8.924;2023-12-29T10:38:11;10.80;99.90
1992;DHT22;997;48.448;8.924;2023-12-29T10:40:37;10.80;99.90
1992;DHT22;997;48.448;8.924;2023-12-29T10:43:03;10.90;99.90
1992;DHT22;997;48.448;8.924;2023-12-29T10:45:35;11.00;99.90
1992;DHT22;997;48.448;8.924;2023-12-29T10:48:02;11.00;99.90
1992;DHT22;997;48.448;8.924;2023-12-29T10:50:28;10.90;99.90
1992;DHT22;997;48.448;8.924;2023-12-29T10:53:13;10.90;99.90
1992;DHT22;997;48.448;8.924;2023-12-29T10:55:39;10.80;99.90
1992;DHT22;997;48.448;8.924;2023-12-29T10:58:05;10.80;99.90
1992;DHT22;997;48.448;8.924;2023-12-29T11:00:31;10.80;99.90
1992;DHT22;997;48.448;8.924;2023-12-29T11:03:00;10.80;99.90
1992;DHT22;997;48.448;8.924;2023-12-29T11:05:26;10.80;99.90
1992;DHT22;997;48.448;8.924;2023-12-29T11:07:53;10.80;99.90
1992;DHT22;997;48.448;8.924;2023-12-29T11:10:20;10.90;99.90
1992;DHT22;997;48.448;8.924;2023-12-29T11:12:48;10.80;99.90
1992;DHT22;997;48.448;8.924;2023-12-29T11:15:15;10.80;99.90
1992;DHT22;997;48.448;8.924;2023-12-29T11:17:42;10.70;99.90
1992;DHT22;997;48.448;8.924;2023-12-29T11:20:16;10.70;99.90
1992;DHT22;997;48.448;8.924;2023-12-29T11:22:42;10.70;99.90
1992;DHT22;997;48.448;8.924;2023-12-29T11:25:09;10.70;99.90
1992;DHT22;997;48.448;8.924;2023-12-29T11:27:35;10.70;99.90
1992;DHT22;997;48.448;8.924;2023-12-29T11:30:03;10.70;99.90
1992;DHT22;997;48.448;8.924;2023-12-29T11:35:18;10.80;99.90
1992;DHT22;997;48.448;8.924;2023-12-29T11:43:12;10.70;99.90
1992;DHT22;997;48.448;8.924;2023-12-29T11:45:38;10.80;99.90
1992;DHT22;997;48.448;8.924;2023-12-29T11:48:04;10.90;99.90
1992;DHT22;997;48.448;8.924;2023-12-29T11:50:40;10.90;99.90
1992;DHT22;997;48.448;8.924;2023-12-29T11:53:07;11.10;99.90
1992;DHT22;997;48.448;8.924;2023-12-29T11:55:38;11.00;99.90
1992;DHT22;997;48.448;8.924;2023-12-29T11:58:24;11.10;99.90
1992;DHT22;997;48.448;8.924;2023-12-29T12:00:51;11.10;99.90
1992;DHT22;997;48.448;8.924;2023-12-29T12:03:25;11.20;99.90
1992;DHT22;997;48.448;8.924;2023-12-29T12:05:52;11.30;99.90
1992;DHT22;997;48.448;8.924;2023-12-29T12:08:27;11.30;99.90
1992;DHT22;997;48.448;8.924;2023-12-29T12:10:55;11.40;99.90
1992;DHT22;997;48.448;8.924;2023-12-29T12:13:43;11.50;99.90
1992;DHT22;997;48.448;8.924;2023-12-29T12:16:09;11.50;99.90
1992;DHT22;997;48.448;8.924;2023-12-29T12:18:35;11.60;99.90
1992;DHT22;997;48.448;8.924;2023-12-29T12:21:03;11.50;99.90
1992;DHT22;997;48.448;8.924;2023-12-29T12:23:33;11.50;99.90
1992;DHT22;997;48.448;8.924;2023-12-29T12:26:01;11.50;99.90
1992;DHT22;997;48.448;8.924;2023-12-29T12:28:26;11.40;99.90
1992;DHT22;997;48.448;8.924;2023-12-29T12:31:04;11.40;99.90
1992;DHT22;997;48.448;8.924;2023-12-29T12:33:31;11.40;99.90
1992;DHT22;997;48.448;8.924;2023-12-29T12:36:00;11.50;99.90
1992;DHT22;997;48.448;8.924;2023-12-29T12:38:26;11.50;99.90
1992;DHT22;997;48.448;8.924;2023-12-29T12:40:52;11.50;99.90
1992;DHT22;997;48.448;8.924;2023-12-29T12:43:18;11.50;99.90
1992;DHT22;997;48.448;8.924;2023-12-29T12:45:53;11.40;99.90
1992;DHT22;997;48.448;8.924;2023-12-29T12:48:43;11.30;99.90
1992;DHT22;997;48.448;8.924;2023-12-29T12:51:10;11.40;99.90
1992;DHT22;997;48.448;8.924;2023-12-29T12:53:43;11.50;99.90
1992;DHT22;997;48.448;8.924;2023-12-29T12:56:14;11.40;99.90
1992;DHT22;997;48.448;8.924;2023-12-29T12:58:40;11.40;99.90
1992;DHT22;997;48.448;8.924;2023-12-29T13:01:06;11.30;99.90
1992;DHT22;997;48.448;8.924;2023-12-29T13:03:32;11.30;99.90
1992;DHT22;997;48.448;8.924;2023-12-29T13:05:59;11.10;99.90
1992;DHT22;997;48.448;8.924;2023-12-29T13:08:26;11.10;99.90
1992;DHT22;997;48.448;8.924;2023-12-29T13:10:53;11.10;99.90
1992;DHT22;997;48.448;8.924;2023-12-29T13:13:19;11.20;99.90
1992;DHT22;997;48.448;8.924;2023-12-29T13:15:48;11.20;99.90
1992;DHT22;997;48.448;8.924;2023-12-29T13:18:17;11.20;99.90
1992;DHT22;997;48.448;8.924;2023-12-29T13:20:53;11.20;99.90
1992;DHT22;997;48.448;8.924;2023-12-29T13:23:19;11.10;99.90
1992;DHT22;997;48.448;8.924;2023-12-29T13:25:46;11.10;99.90
1992;DHT22;997;48.448;8.924;2023-12-29T13:28:12;11.20;99.90
1992;DHT22;997;48.448;8.924;2023-12-29T13:30:39;11.10;99.90
1992;DHT22;997;48.448;8.924;2023-12-29T13:33:18;11.10;99.90
1992;DHT22;997;48.448;8.924;2023-12-29T13:35:54;11.10;99.90
1992;DHT22;997;48.448;8.924;2023-12-29T13:38:27;11.10;99.90
1992;DHT22;997;48.448;8.924;2023-12-29T13:41:07;11.00;99.90
1992;DHT22;997;48.448;8.924;2023-12-29T13:43:34;11.10;99.90
1992;DHT22;997;48.448;8.924;2023-12-29T13:46:03;11.00;99.90
1992;DHT22;997;48.448;8.924;2023-12-29T13:48:29;10.90;99.90
1992;DHT22;997;48.448;8.924;2023-12-29T13:50:55;10.80;99.90
1992;DHT22;997;48.448;8.924;2023-12-29T13:53:21;10.80;99.90
1992;DHT22;997;48.448;8.924;2023-12-29T13:55:48;10.80;99.90
1992;DHT22;997;48.448;8.924;2023-12-29T13:58:15;10.80;99.90
1992;DHT22;997;48.448;8.924;2023-12-29T14:00:43;10.70;99.90
1992;DHT22;997;48.448;8.924;2023-12-29T14:03:30;10.70;99.90
1992;DHT22;997;48.448;8.924;2023-12-29T14:06:04;10.80;99.90
1992;DHT22;997;48.448;8.924;2023-12-29T14:08:40;10.70;99.90
1992;DHT22;997;48.448;8.924;2023-12-29T14:11:09;10.60;99.90
1992;DHT22;997;48.448;8.924;2023-12-29T14:13:40;10.60;99.90
1992;DHT22;997;48.448;8.924;2023-12-29T14:16:06;10.50;99.90
1992;DHT22;997;48.448;8.924;2023-12-29T14:21:00;10.60;99.90
1992;DHT22;997;48.448;8.924;2023-12-29T14:23:26;10.50;99.90
1992;DHT22;997;48.448;8.924;2023-12-29T14:25:52;10.50;99.90
1992;DHT22;997;48.448;8.924;2023-12-29T14:28:19;10.50;99.90
1992;DHT22;997;48.448;8.924;2023-12-29T14:30:46;10.50;99.90
1992;DHT22;997;48.448;8.924;2023-12-29T14:33:12;10.40;99.90
1992;DHT22;997;48.448;8.924;2023-12-29T14:35:38;10.40;99.90
1992;DHT22;997;48.448;8.924;2023-12-29T14:38:04;10.40;99.90
1992;DHT22;997;48.448;8.924;2023-12-29T14:40:30;10.40;99.90
1992;DHT22;997;48.448;8.924;2023-12-29T14:42:55;10.30;99.90
1992;DHT22;997;48.448;8.924;2023-12-29T14:45:21;10.30;99.90
1992;DHT22;997;48.448;8.924;2023-12-29T14:47:47;10.30;99.90
1992;DHT22;997;48.448;8.924;2023-12-29T14:50:15;10.20;99.90
1992;DHT22;997;48.448;8.924;2023-12-29T14:52:41;10.10;99.90
1992;DHT22;997;48.448;8.924;2023-12-29T14:55:07;10.00;99.90
1992;DHT22;997;48.448;8.924;2023-12-29T14:57:32;10.00;99.90
1992;DHT22;997;48.448;8.924;2023-12-29T14:59:58;10.00;99.90
1992;DHT22;997;48.448;8.924;2023-12-29T15:02:23;10.00;99.90
1992;DHT22;997;48.448;8.924;2023-12-29T15:04:49;10.10;99.90
1992;DHT22;997;48.448;8.924;2023-12-29T15:07:18;10.00;99.90
1992;DHT22;997;48.448;8.924;2023-12-29T15:09:44;10.10;99.90
1992;DHT22;997;48.448;8.924;2023-12-29T15:12:09;10.00;99.90
1992;DHT22;997;48.448;8.924;2023-12-29T15:14:35;10.00;99.90
1992;DHT22;997;48.448;8.924;2023-12-29T15:17:01;9.90;99.90
1992;DHT22;997;48.448;8.924;2023-12-29T15:19:27;9.80;99.90
1992;DHT22;997;48.448;8.924;2023-12-29T15:21:52;9.70;99.90
1992;DHT22;997;48.448;8.924;2023-12-29T15:24:22;9.60;99.90
1992;DHT22;997;48.448;8.924;2023-12-29T15:26:48;9.70;99.90
1992;DHT22;997;48.448;8.924;2023-12-29T15:29:14;9.80;99.90
1992;DHT22;997;48.448;8.924;2023-12-29T15:31:43;9.80;99.90
1992;DHT22;997;48.448;8.924;2023-12-29T15:34:09;9.70;99.90
1992;DHT22;997;48.448;8.924;2023-12-29T15:36:35;9.70;99.90
1992;DHT22;997;48.448;8.924;2023-12-29T15:39:01;9.80;99.90
1992;DHT22;997;48.448;8.924;2023-12-29T15:41:26;9.90;99.90
1992;DHT22;997;48.448;8.924;2023-12-29T15:43:52;9.90;99.90
1992;DHT22;997;48.448;8.924;2023-12-29T15:46:19;9.70;99.90
1992;DHT22;997;48.448;8.924;2023-12-29T15:48:48;9.70;99.90
1992;DHT22;997;48.448;8.924;2023-12-29T15:51:14;9.40;99.90
1992;DHT22;997;48.448;8.924;2023-12-29T15:53:40;9.50;99.90
1992;DHT22;997;48.448;8.924;2023-12-29T15:56:06;9.50;99.90
1992;DHT22;997;48.448;8.924;2023-12-29T15:58:32;9.50;99.90
1992;DHT22;997;48.448;8.924;2023-12-29T16:00:58;9.40;99.90
1992;DHT22;997;48.448;8.924;2023-12-29T16:03:24;9.30;99.90
1992;DHT22;997;48.448;8.924;2023-12-29T16:05:49;9.30;99.90
1992;DHT22;997;48.448;8.924;2023-12-29T16:08:15;9.30;99.90
1992;DHT22;997;48.448;8.924;2023-12-29T16:10:41;9.50;99.90
1992;DHT22;997;48.448;8.924;2023-12-29T16:13:07;9.70;99.90
1992;DHT22;997;48.448;8.924;2023-12-29T16:15:33;9.70;99.90
1992;DHT22;997;48.448;8.924;2023-12-29T16:17:58;9.70;99.90
1992;DHT22;997;48.448;8.924;2023-12-29T16:20:26;9.80;99.90
1992;DHT22;997;48.448;8.924;2023-12-29T16:22:52;9.80;99.90
1992;DHT22;997;48.448;8.924;2023-12-29T16:25:18;9.90;99.90
1992;DHT22;997;48.448;8.924;2023-12-29T16:27:45;9.90;99.90
1992;DHT22;997;48.448;8.924;2023-12-29T16:30:11;9.80;99.90
1992;DHT22;997;48.448;8.924;2023-12-29T16:32:36;9.80;99.90
1992;DHT22;997;48.448;8.924;2023-12-29T16:35:02;9.70;99.90
1992;DHT22;997;48.448;8.924;2023-12-29T16:37:28;9.60;99.90
1992;DHT22;997;48.448;8.924;2023-12-29T16:39:55;9.50;99.90
1992;DHT22;997;48.448;8.924;2023-12-29T16:42:21;9.50;99.90
1992;DHT22;997;48.448;8.924;2023-12-29T16:44:46;9.50;99.90
1992;DHT22;997;48.448;8.924;2023-12-29T16:47:13;9.50;99.90
1992;DHT22;997;48.448;8.924;2023-12-29T16:49:39;9.50;99.90